Airfield :
LOGIN :

Register | Disclaimer

   EN    FR    IT 

 










Legend :    VFR   Marginal VFR   IFR   Intensive IFR   Very Intensive IFR
Visi :
Ceiling :
>= 8 km
>= 3000ft
5 to 8 km
1000 to 3000 ft
1500m to 5 km
500 to 1000 ft
800 to 1500m
200 to 500 ft
< 800m
< 200 ft
Symbols :   Thunderstorms  Fog  Heavy snow  Heavy precipitations  Wind > 20 kt
SIGMETs :     Misc.  Thunderstorms  Icing  Turbulence  Mountain Waves  Volcanic Ashes






- Airport Elevation : 776 ft
- IATA code : RMS


ETAR - Ramstein Air Base

CURRENT METAR :
  • 070556Z AUTO 26003KT 9999 BKN060 14/10 A3016 RMK AO2 SLP212 T01400104 10141 20087 58002 $

EXPIRED METARs :
  • 070456Z AUTO 26003KT 9999 BKN055 13/10 A3016 RMK AO2 SLP212 T01260103 $
  • 070356Z AUTO 00000KT 9999 FEW110 09/09 A3017 RMK AO2 SLP217 T00900090

TAF TAF ETAR
Valid from the 07 at 02:00 until the 08 at 08:00 UTC


070200Z 0702/0808 23009KT 9999 BKN040 QNH3017INS
BECMG 0707/0708 27010G20KT 9999 SCT015 BKN020 QNH3018INS
TEMPO 0711/0716 31012G25KT 9000 -SHRA
BECMG 0717/0718 33009KT 9999 SCT010 BKN020 QNH3025INS TX21/0714Z TN10/0704Z



MET'MAP, your aeronautical weather chart ! - Copyright ORBIFLY December 2007 - Disclaimer

ORBIFLY MET'MAP TEAM :

Programming & Development : Alexandra Zaïnal
Original concept : Baudouin d'Aumeries
Technical & hardware support : Manuel Goepfert
Assistance : Marc-Olivier Méhu




SOURCES & CREDITS :

   NOAA